• Join FlightAware (Why Join?)
  • Login
  • US Flag 
 
02:07AM EST


 

Airport Tracker/Info


-or-


 

Live Flight TrackerFlight Track Log ✈ JBU265 ✈ 08-Apr-2013 ✈ KSMF - KLGB

Flight Track Log - Related Links

Times and Time Zones

All times are in EDT time to prevent confusion due to time zone crossing. See the JBU265 flight status page for this flight to view local times or setup timezone preferences in your user account.

Time Position Orientation Groundspeed Altitude Reporting Facility
EDT Latitude Longitude Course Direction KTS MPH feet Rate Location/Type
11:16PM 38.7333 -121.5500 142° Southeast 199 229 2,600  Level Northern Cal TRACON
11:17PM 38.7000 -121.4667 117° Southeast 268 308 6,000 3,240 Climbing Northern Cal TRACON
11:18PM 38.3354 -121.3190 134° Southeast  Level Estimated
11:18PM 38.6667 -121.4000 123° Southeast 284 327 9,100  Level Northern Cal TRACON
11:19PM 38.2153 -121.2290 90° East  Level Estimated
11:19PM 38.6092 -121.3022 127° Southeast 311 358 11,200  Level Oakland Center
11:20PM 38.0951 -121.1393 110° East  Level Estimated
11:20PM 38.5406 -121.1897 128° Southeast 381 438 13,100  Level Oakland Center
11:21PM 37.9748 -121.0499 110° East  Level Estimated
11:21PM 38.4572 -121.0517 128° Southeast 411 473 15,400  Level Oakland Center
11:22PM 37.8790 -120.9790 142° Southeast  Level Estimated
11:22PM 38.3789 -120.9222 128° Southeast 446 513 17,300  Level Oakland Center
11:24PM 38.2983 -120.7883 127° Southeast 467 537 18,900 1,560 Climbing Oakland Center
11:25PM 38.2050 -120.6569 132° Southeast 490 564 20,500 1,560 Climbing Oakland Center
11:26PM 38.0847 -120.5425 143° Southeast 532 612 22,100 1,440 Climbing Oakland Center
11:27PM 37.9669 -120.4214 141° Southeast 543 625 23,500 1,320 Climbing Oakland Center
11:28PM 37.8436 -120.3022 143° Southeast 553 636 24,900 1,200 Climbing Oakland Center
11:29PM 37.7178 -120.1814 143° Southeast 565 650 26,000 1,440 Climbing Oakland Center
11:30PM 37.5881 -120.0617 144° Southeast 575 662 27,900 1,440 Climbing Oakland Center
11:31PM 37.4328 -120.0025 163° South 586 674 29,000 540 Climbing Oakland Center
11:32PM 37.2686 -119.9758 173° South 591 680 29,000  Level Oakland Center
11:33PM 37.0817 -119.9436 172° South 605 696 29,000  Level Oakland Center
11:34PM 36.9186 -119.9164 172° South 600 690 29,000 -60 Level Oakland Center
11:35PM 36.7508 -119.8833 171° South 608 700 28,900  Descending Oakland Center
11:36PM 36.5867 -119.8567 173° South 595 685 29,000  Climbing Oakland Center
11:37PM 36.4183 -119.8286 172° South 609 701 28,900  Descending Oakland Center
11:38PM 36.2517 -119.8008 172° South 603 694 29,000  Climbing Oakland Center
11:39PM 36.0850 -119.7736 172° South 603 694 29,000  Level Oakland Center
11:40PM 35.9197 -119.7508 174° South 591 680 29,000  Level Oakland Center
11:41PM 35.7528 -119.7236 172° South 600 690 29,000  Level Oakland Center
11:42PM 35.5836 -119.6933 172° South 606 697 29,000  Level Oakland Center
11:43PM 35.4167 -119.6653 172° South 601 692 29,000  Level Oakland Center
11:43PM 35.3514 -119.6450 166° South 600 690 29,000 -120 Level Los Angeles Center
11:44PM 35.1942 -119.5725 159° South 600 690 28,900 -120 Descending Los Angeles Center
11:45PM 35.0519 -119.4689 149° Southeast 595 685 28,800 -660 Descending Los Angeles Center
11:46PM 34.9186 -119.3522 144° Southeast 591 680 27,600 -1,560 Descending Los Angeles Center
11:47PM 34.7831 -119.2369 145° Southeast 592 681 25,700 -1,800 Descending Los Angeles Center
11:48PM 34.6494 -119.1231 145° Southeast 587 676 24,000 -1,200 Descending Los Angeles Center
11:49PM 34.5078 -119.0075 146° Southeast 585 673 23,300 -1,080 Descending Los Angeles Center
11:50PM 34.3758 -118.9117 149° Southeast 546 628 21,900 -1,320 Descending Los Angeles Center
11:51PM 34.2417 -118.8444 157° South 531 611 20,700 -1,860 Descending Los Angeles Center
11:52PM 34.1061 -118.7903 162° South 515 593 18,200 -3,060 Descending Los Angeles Center
11:53PM 33.9550 -118.7333 163° South 480 552 14,500 -2,100 Descending Los Angeles Center
11:54PM 33.8431 -118.6917 163° South 424 488 14,000 -540 Descending Los Angeles Center
11:55PM 33.7308 -118.6519 164° South 419 482 13,500 -1,080 Descending Los Angeles Center
11:56PM 33.6342 -118.6050 158° South 380 437 11,900 -1,800 Descending Los Angeles Center
11:57PM 33.6047 -118.5089 110° East 306 352 9,900 -2,460 Descending Los Angeles Center
11:58PM 33.5983 -118.4161 95° East 288 331 6,900 -2,640 Descending Los Angeles Center
11:59PM 33.6011 -118.3244 88° East 282 325 4,600 -2,160 Descending Los Angeles Center
12:00AM 33.6053 -118.2181 87° East 275 316 2,500 -1,320 Descending Los Angeles Center
12:01AM 33.6228 -118.1436 74° East 252 290 2,000 -480 Descending Los Angeles Center
12:03AM 33.6675 -118.1042 36° Northeast 213 245 1,600 -300 Descending Los Angeles Center
12:04AM 33.7097 -118.0781 27° Northeast 182 209 1,500  Descending Los Angeles Center
12:05AM 33.7508 -118.0675 12° North 163 188 1,600 -300 Climbing Los Angeles Center
12:06AM 33.7753 -118.0989 313° West 141 162 1,000 -720 Descending Los Angeles Center
12:06AM 33.7833 -118.1167 299° West 130 150 700 -720 Descending Southern California TRACON
12:07AM 33.8056 -118.1358 324° Northwest 132 152 300 -540 Descending Los Angeles Center